Time;durP1;ratioP1;P1;durP2;ratioP2;P2;SDS_P1;SDS_P2;PMS_P1;PMS_P2;Temp;Humidity;BMP_temperature;BMP_pressure;BME280_temperature;BME280_humidity;BME280_pressure;Samples;Min_cycle;Max_cycle;Signal;HPM_P1;HPM_P2
2022/06/15 00:01:56;;;;;;;10.80;6.60;;;14.50;99.90;;;;;;5113291;28;20281;-74
2022/06/15 00:04:21;;;;;;;13.40;7.20;;;14.40;99.90;;;;;;5113663;28;20506;-74
2022/06/15 00:06:47;;;;;;;8.93;6.10;;;14.50;99.90;;;;;;5113189;28;20079;-74
2022/06/15 00:09:13;;;;;;;10.40;6.97;;;14.40;99.90;;;;;;5078760;28;20642;-74
2022/06/15 00:11:44;;;;;;;10.20;6.97;;;14.40;99.90;;;;;;5095155;28;20051;-74
2022/06/15 00:14:25;;;;;;;10.70;6.77;;;14.40;99.90;;;;;;5095496;28;20036;-74
2022/06/15 00:16:52;;;;;;;10.30;6.40;;;14.30;99.90;;;;;;5113149;28;20316;-74
2022/06/15 00:19:18;;;;;;;12.33;8.00;;;14.30;99.90;;;;;;5113194;28;20838;-74
2022/06/15 00:21:44;;;;;;;14.30;7.90;;;14.20;99.90;;;;;;5113005;28;20338;-74
2022/06/15 00:24:11;;;;;;;10.77;7.20;;;14.20;99.90;;;;;;5095315;28;20307;-74
2022/06/15 00:26:38;;;;;;;13.47;8.03;;;14.20;99.90;;;;;;5113001;28;20761;-74
2022/06/15 00:29:03;;;;;;;9.80;7.30;;;14.20;99.90;;;;;;5113222;28;20281;-74
2022/06/15 00:31:29;;;;;;;12.27;7.70;;;14.10;99.90;;;;;;5113193;28;20342;-74
2022/06/15 00:33:55;;;;;;;11.53;7.23;;;14.10;99.90;;;;;;5112833;28;20050;-74
2022/06/15 00:36:22;;;;;;;11.03;6.93;;;14.10;99.90;;;;;;5113137;28;20048;-74
2022/06/15 00:38:56;;;;;;;10.60;6.70;;;14.10;99.90;;;;;;5112607;28;20058;-74
2022/06/15 00:41:28;;;;;;;12.50;7.40;;;14.10;99.90;;;;;;5113111;28;20288;-74
2022/06/15 00:43:53;;;;;;;12.90;7.30;;;14.10;99.90;;;;;;5112942;28;20044;-74
2022/06/15 00:46:57;;;;;;;14.47;7.57;;;14.10;99.90;;;;;;5113119;28;20281;-74
2022/06/15 00:49:31;;;;;;;12.33;7.77;;;14.10;99.90;;;;;;5032438;28;20084;-74
2022/06/15 00:52:09;;;;;;;11.27;7.50;;;14.10;99.90;;;;;;5105788;28;20293;-74
2022/06/15 00:54:36;;;;;;;14.43;8.17;;;14.10;99.90;;;;;;5117160;28;20383;-74
2022/06/15 00:57:03;;;;;;;16.03;8.03;;;14.00;99.90;;;;;;5098840;28;20293;-74
2022/06/15 00:59:46;;;;;;;11.97;7.30;;;14.00;99.90;;;;;;5116755;28;20300;-74
2022/06/15 01:02:11;;;;;;;14.70;8.03;;;14.10;99.90;;;;;;5116857;28;20273;-74
2022/06/15 01:04:46;;;;;;;13.57;7.70;;;14.00;99.90;;;;;;5116536;28;20292;-74
2022/06/15 01:07:30;;;;;;;13.98;7.82;;;14.10;99.90;;;;;;5098884;28;20556;-74
2022/06/15 01:10:30;;;;;;;13.07;7.63;;;14.00;99.90;;;;;;5116487;28;20099;-74
2022/06/15 01:13:33;;;;;;;12.17;7.00;;;14.00;99.90;;;;;;5046509;28;20293;-75
2022/06/15 01:16:08;;;;;;;11.53;7.27;;;14.00;99.90;;;;;;5116544;28;20292;-75
2022/06/15 01:19:04;;;;;;;14.38;7.00;;;14.00;99.90;;;;;;5116721;28;20347;-75
2022/06/15 01:21:48;;;;;;;10.33;6.87;;;13.90;99.90;;;;;;5098456;28;20087;-75
2022/06/15 01:24:28;;;;;;;9.40;6.87;;;13.90;99.90;;;;;;5116353;28;20292;-75
2022/06/15 01:27:10;;;;;;;12.53;6.87;;;13.80;99.90;;;;;;5097942;28;20397;-75
2022/06/15 01:30:13;;;;;;;10.37;7.00;;;13.80;99.90;;;;;;5116266;28;20274;-75
2022/06/15 01:33:15;;;;;;;10.27;6.20;;;13.80;99.90;;;;;;5116346;28;20304;-75
2022/06/15 01:36:02;;;;;;;9.17;5.97;;;13.70;99.90;;;;;;5116179;28;20277;-75
2022/06/15 01:38:33;;;;;;;12.50;6.93;;;13.70;99.90;;;;;;5116129;28;20309;-76
2022/06/15 01:41:12;;;;;;;11.83;7.60;;;13.70;99.90;;;;;;5115709;28;20301;-75
2022/06/15 01:43:45;;;;;;;11.87;7.17;;;13.70;99.90;;;;;;5098160;28;20603;-75
2022/06/15 01:46:11;;;;;;;10.13;6.87;;;13.70;99.90;;;;;;5115903;28;20325;-75
2022/06/15 01:48:39;;;;;;;9.33;6.03;;;13.70;99.90;;;;;;5115887;28;20277;-75
2022/06/15 01:51:13;;;;;;;13.40;6.67;;;13.60;99.90;;;;;;5115637;28;20278;-75
2022/06/15 01:54:20;;;;;;;8.85;5.95;;;13.60;99.90;;;;;;5115857;28;20759;-75
2022/06/15 01:56:48;;;;;;;9.10;6.20;;;13.60;99.90;;;;;;5115531;28;20075;-75
2022/06/15 01:59:28;;;;;;;8.57;5.87;;;13.60;99.90;;;;;;5115572;28;20347;-75
2022/06/15 02:02:02;;;;;;;11.83;6.83;;;13.60;99.90;;;;;;5114740;28;20313;-74
2022/06/15 02:04:37;;;;;;;11.30;6.85;;;13.50;99.90;;;;;;5115907;28;20278;-74
2022/06/15 02:07:21;;;;;;;12.75;6.40;;;13.50;99.90;;;;;;5115002;28;20484;-75
2022/06/15 02:09:58;;;;;;;13.70;6.85;;;13.60;99.90;;;;;;5114990;28;20480;-75
2022/06/15 02:12:32;;;;;;;9.47;6.80;;;13.60;99.90;;;;;;5115551;28;20052;-74
2022/06/15 02:15:01;;;;;;;11.07;6.40;;;13.50;99.90;;;;;;5115276;28;20603;-74
2022/06/15 02:17:32;;;;;;;10.07;6.80;;;13.50;99.90;;;;;;5097377;28;20047;-74
2022/06/15 02:20:04;;;;;;;12.20;7.03;;;13.50;99.90;;;;;;5114982;28;20301;-74
2022/06/15 02:22:33;;;;;;;9.30;6.47;;;13.50;99.90;;;;;;5097590;28;20629;-74
2022/06/15 02:25:03;;;;;;;10.83;6.77;;;13.60;99.90;;;;;;5114884;28;20281;-75
2022/06/15 02:27:32;;;;;;;13.80;7.60;;;13.50;99.90;;;;;;5115418;28;20274;-74
2022/06/15 02:30:07;;;;;;;13.10;7.10;;;13.50;99.90;;;;;;5114864;28;20286;-74
2022/06/15 02:32:36;;;;;;;10.40;6.87;;;13.50;99.90;;;;;;5115036;28;20333;-74
2022/06/15 02:35:03;;;;;;;10.47;6.93;;;13.50;99.90;;;;;;5114752;28;20281;-74
2022/06/15 02:37:28;;;;;;;13.50;6.80;;;13.50;99.90;;;;;;5114930;28;20422;-74
2022/06/15 02:39:54;;;;;;;10.17;6.20;;;13.50;99.90;;;;;;5080004;28;20393;-75
2022/06/15 02:42:24;;;;;;;10.10;6.57;;;13.40;99.90;;;;;;5074466;28;20162;-74
2022/06/15 02:44:53;;;;;;;10.63;7.00;;;13.50;99.90;;;;;;5072869;28;20047;-75
2022/06/15 02:47:21;;;;;;;10.67;6.60;;;13.50;99.90;;;;;;5074068;28;20282;-74
2022/06/15 02:49:51;;;;;;;12.57;7.60;;;13.40;99.90;;;;;;5074095;28;20592;-74
2022/06/15 02:52:20;;;;;;;11.83;6.70;;;13.50;99.90;;;;;;5073132;28;20287;-75
2022/06/15 02:54:49;;;;;;;10.03;6.60;;;13.50;99.90;;;;;;5073932;28;20328;-74
2022/06/15 02:57:17;;;;;;;11.73;6.60;;;13.50;99.90;;;;;;5073920;28;20314;-74
2022/06/15 02:59:45;;;;;;;12.17;7.03;;;13.50;99.90;;;;;;5072400;28;20306;-74
2022/06/15 03:02:14;;;;;;;14.20;7.17;;;13.50;99.90;;;;;;5072385;28;20279;-74
2022/06/15 03:04:44;;;;;;;13.80;6.90;;;13.40;99.90;;;;;;5073689;28;20287;-74
2022/06/15 03:07:11;;;;;;;14.47;8.27;;;13.50;99.90;;;;;;5073419;28;20271;-74
2022/06/15 03:09:38;;;;;;;13.23;7.00;;;13.50;99.90;;;;;;5073662;28;20267;-74
2022/06/15 03:12:04;;;;;;;12.47;6.10;;;13.50;99.90;;;;;;5073301;28;20286;-74
2022/06/15 03:14:30;;;;;;;11.97;6.60;;;13.50;99.90;;;;;;5039345;28;20295;-74
2022/06/15 03:16:57;;;;;;;10.67;5.90;;;13.50;99.90;;;;;;5073222;28;20301;-74
2022/06/15 03:19:23;;;;;;;14.90;7.50;;;13.50;99.90;;;;;;5073518;28;20303;-74
2022/06/15 03:21:49;;;;;;;14.33;8.30;;;13.40;99.90;;;;;;5073498;28;20283;-74
2022/06/15 03:24:15;;;;;;;10.13;6.40;;;13.50;99.90;;;;;;5072207;28;20040;-74
2022/06/15 03:26:40;;;;;;;14.17;7.13;;;13.50;99.90;;;;;;5073443;28;20123;-74
2022/06/15 03:29:07;;;;;;;11.37;5.87;;;13.40;99.90;;;;;;5073092;28;20442;-74
2022/06/15 03:31:33;;;;;;;10.57;5.87;;;13.50;99.90;;;;;;5073368;28;20404;-74
2022/06/15 03:33:59;;;;;;;13.03;6.23;;;13.50;99.90;;;;;;5073087;28;20301;-74
2022/06/15 03:36:25;;;;;;;12.37;6.17;;;13.50;99.90;;;;;;5073122;28;20286;-74
2022/06/15 03:38:51;;;;;;;11.77;6.10;;;13.50;99.90;;;;;;5081036;28;20055;-74
2022/06/15 03:41:19;;;;;;;9.17;5.43;;;13.50;99.90;;;;;;5095208;28;20088;-74
2022/06/15 03:43:46;;;;;;;10.43;6.43;;;13.50;99.90;;;;;;5113730;28;20286;-74
2022/06/15 03:46:12;;;;;;;11.43;6.53;;;13.50;99.90;;;;;;5113425;28;20312;-74
2022/06/15 03:48:39;;;;;;;10.30;5.80;;;13.50;99.90;;;;;;5113580;28;20277;-74
2022/06/15 03:51:05;;;;;;;11.33;5.97;;;13.50;99.90;;;;;;5113247;28;20305;-74
2022/06/15 03:53:31;;;;;;;9.37;6.03;;;13.60;99.90;;;;;;5095538;28;20296;-75
2022/06/15 03:55:56;;;;;;;11.17;5.97;;;13.60;99.90;;;;;;5113559;28;20718;-82
2022/06/15 03:58:22;;;;;;;14.20;6.03;;;13.70;99.90;;;;;;5113529;28;20126;-74
2022/06/15 04:00:49;;;;;;;11.40;5.93;;;13.70;99.90;;;;;;5113451;28;20047;-73
2022/06/15 04:03:15;;;;;;;12.23;5.57;;;13.70;99.90;;;;;;5113436;28;20822;-74
2022/06/15 04:05:44;;;;;;;14.10;6.63;;;13.70;99.90;;;;;;5113454;28;20269;-74
2022/06/15 04:08:35;;;;;;;11.23;5.47;;;13.70;99.90;;;;;;5113141;28;20326;-74
2022/06/15 04:11:06;;;;;;;10.03;5.30;;;13.70;99.90;;;;;;5113349;28;20658;-74
2022/06/15 04:13:33;;;;;;;10.70;5.50;;;13.70;99.90;;;;;;5113773;28;20282;-74
2022/06/15 04:15:59;;;;;;;12.37;5.30;;;13.70;99.90;;;;;;5095256;28;20300;-82
2022/06/15 04:18:25;;;;;;;13.00;5.60;;;13.70;99.90;;;;;;5113347;28;20368;-74
2022/06/15 04:20:51;;;;;;;12.90;6.20;;;13.70;99.90;;;;;;5112919;28;20388;-74
2022/06/15 04:23:19;;;;;;;14.00;5.33;;;13.80;99.90;;;;;;5113561;28;20047;-74
2022/06/15 04:25:51;;;;;;;9.97;6.10;;;13.90;99.90;;;;;;5117491;28;20372;-73
2022/06/15 04:28:20;;;;;;;11.27;5.50;;;14.00;99.90;;;;;;5117217;28;20335;-74
2022/06/15 04:30:47;;;;;;;9.97;5.50;;;14.00;99.90;;;;;;5117421;28;20293;-74
2022/06/15 04:33:13;;;;;;;9.40;5.17;;;14.10;99.90;;;;;;5117120;28;20349;-74
2022/06/15 04:35:39;;;;;;;12.23;5.43;;;14.20;99.90;;;;;;5117280;28;20276;-74
2022/06/15 04:38:06;;;;;;;8.77;5.00;;;14.20;99.90;;;;;;5116979;28;20277;-74
2022/06/15 04:40:33;;;;;;;9.07;5.57;;;14.20;99.90;;;;;;5116863;28;20304;-74
2022/06/15 04:42:59;;;;;;;11.90;5.27;;;14.30;99.90;;;;;;5117165;28;20380;-73
2022/06/15 04:45:25;;;;;;;11.57;6.43;;;14.30;99.90;;;;;;5116839;28;20485;-74
2022/06/15 04:47:51;;;;;;;13.37;6.70;;;14.30;99.90;;;;;;5117273;28;20047;-75
2022/06/15 04:50:17;;;;;;;10.53;6.40;;;14.40;99.90;;;;;;5098874;28;20316;-74
2022/06/15 04:52:44;;;;;;;12.40;6.90;;;14.50;99.90;;;;;;5117321;28;20097;-75
2022/06/15 04:55:13;;;;;;;8.90;6.63;;;14.60;99.90;;;;;;5116703;28;20040;-76
2022/06/15 04:57:39;;;;;;;10.87;6.60;;;14.60;99.90;;;;;;5117027;28;20331;-76
2022/06/15 05:00:07;;;;;;;10.20;6.63;;;14.70;99.90;;;;;;5116245;28;20793;-76
2022/06/15 05:02:34;;;;;;;13.87;7.20;;;14.80;99.90;;;;;;5116733;28;20052;-73
2022/06/15 05:04:59;;;;;;;13.97;6.80;;;15.00;99.90;;;;;;5098644;28;20368;-75
2022/06/15 05:07:25;;;;;;;11.57;6.40;;;15.10;99.90;;;;;;5098438;28;20365;-75
2022/06/15 05:09:51;;;;;;;9.97;7.17;;;15.10;99.90;;;;;;5116740;28;20047;-75
2022/06/15 05:12:18;;;;;;;10.47;6.47;;;15.20;99.90;;;;;;5116300;28;20502;-75
2022/06/15 05:14:47;;;;;;;13.77;6.53;;;15.30;99.90;;;;;;5116561;28;20043;-75
2022/06/15 05:17:15;;;;;;;11.03;6.60;;;15.30;99.90;;;;;;5116221;28;20765;-76
2022/06/15 05:19:40;;;;;;;15.40;7.00;;;15.20;99.90;;;;;;5116356;28;20777;-75
2022/06/15 05:22:06;;;;;;;11.70;5.90;;;15.10;99.90;;;;;;5098112;28;20293;-83
2022/06/15 05:24:32;;;;;;;11.90;5.40;;;15.20;99.90;;;;;;5116337;28;20108;-74
2022/06/15 05:26:58;;;;;;;15.03;7.03;;;15.20;99.90;;;;;;5098164;28;20141;-74
2022/06/15 05:29:24;;;;;;;11.03;6.27;;;15.30;99.90;;;;;;5097820;28;20043;-74
2022/06/15 05:31:51;;;;;;;15.93;6.53;;;15.50;99.90;;;;;;5116441;28;20048;-74
2022/06/15 05:34:17;;;;;;;12.40;6.10;;;15.60;99.90;;;;;;5115589;28;20304;-74
2022/06/15 05:36:43;;;;;;;13.43;6.73;;;15.90;99.90;;;;;;5096881;28;20777;-73
2022/06/15 05:39:10;;;;;;;14.50;5.77;;;16.00;99.90;;;;;;5115700;28;20104;-74
2022/06/15 05:41:36;;;;;;;11.47;5.60;;;16.20;99.90;;;;;;5116002;28;20047;-74
2022/06/15 05:46:48;;;;;;;9.63;4.10;;;16.70;99.90;;;;;;5093969;28;20131;-74
2022/06/15 05:49:13;;;;;;;9.97;5.10;;;16.80;99.90;;;;;;5115537;28;20365;-75
2022/06/15 05:51:41;;;;;;;12.70;4.50;;;;;;;;;;5098133;28;20092;-75
2022/06/15 05:54:07;;;;;;;13.00;6.00;;;;;;;;;;5115807;28;20126;-75
2022/06/15 05:56:33;;;;;;;10.37;4.83;;;20.10;99.90;;;;;;5115442;28;20040;-75
2022/06/15 05:59:00;;;;;;;11.07;4.87;;;;;;;;;;5115649;28;20051;-75
2022/06/15 06:01:31;;;;;;;9.33;4.80;;;22.40;99.90;;;;;;5097399;28;20051;-76
2022/06/15 06:03:58;;;;;;;7.97;4.53;;;;;;;;;;5115490;28;20049;-76
2022/06/15 06:06:24;;;;;;;10.73;4.80;;;;;;;;;;5115299;28;20054;-76
2022/06/15 06:08:50;;;;;;;9.70;4.93;;;23.80;93.10;;;;;;5115549;28;20147;-76
2022/06/15 06:11:17;;;;;;;8.43;4.90;;;24.00;78.60;;;;;;5115277;28;20547;-71
2022/06/15 06:13:43;;;;;;;10.70;5.20;;;24.20;71.60;;;;;;5115455;28;20090;-74
2022/06/15 06:16:09;;;;;;;8.40;4.77;;;;;;;;;;5097433;28;20087;-75
2022/06/15 06:18:35;;;;;;;10.03;4.70;;;;;;;;;;5096724;28;20551;-78
2022/06/15 06:21:01;;;;;;;11.57;4.73;;;;;;;;;;5115181;28;20040;-78
2022/06/15 06:23:27;;;;;;;10.90;4.03;;;26.60;52.40;;;;;;5114976;28;20046;-76
2022/06/15 06:25:53;;;;;;;11.57;4.33;;;26.80;55.10;;;;;;5080471;28;20091;-77
2022/06/15 06:28:33;;;;;;;8.03;3.30;;;27.00;54.30;;;;;;5096927;28;20407;-76
2022/06/15 06:31:00;;;;;;;7.87;3.77;;;26.90;50.00;;;;;;5115135;28;20082;-76
2022/06/15 06:33:28;;;;;;;8.60;3.23;;;;;;;;;;5114710;28;20066;-74
2022/06/15 06:35:55;;;;;;;7.30;3.30;;;26.90;50.80;;;;;;5114965;28;20047;-77
2022/06/15 06:38:21;;;;;;;11.37;4.10;;;27.40;51.20;;;;;;5114814;28;20088;-77
2022/06/15 06:40:49;;;;;;;8.70;3.53;;;27.90;49.80;;;;;;5096700;28;20395;-79
2022/06/15 06:43:15;;;;;;;9.47;4.07;;;28.10;47.90;;;;;;5114637;28;20048;-77
2022/06/15 06:45:42;;;;;;;7.03;3.50;;;;;;;;;;5114844;28;20061;-78
2022/06/15 06:48:08;;;;;;;10.90;3.60;;;27.90;44.20;;;;;;5114607;28;20047;-78
2022/06/15 06:50:35;;;;;;;8.93;3.70;;;;;;;;;;5114451;28;20487;-78
2022/06/15 06:53:02;;;;;;;10.67;3.67;;;;;;;;;;5114655;28;20043;-78
2022/06/15 06:55:28;;;;;;;9.93;3.63;;;25.10;50.30;;;;;;5114305;28;20048;-78
2022/06/15 06:57:57;;;;;;;10.23;4.00;;;;;;;;;;5114550;28;20084;-78
2022/06/15 07:00:24;;;;;;;9.60;3.90;;;23.90;90.70;;;;;;5114221;28;20185;-78
2022/06/15 07:02:51;;;;;;;9.87;3.33;;;24.10;52.20;;;;;;5114557;28;20044;-78
2022/06/15 07:05:17;;;;;;;8.50;3.00;;;24.00;53.10;;;;;;5114479;28;20104;-77
2022/06/15 07:07:43;;;;;;;7.97;3.33;;;24.50;52.90;;;;;;5114694;28;20050;-78
2022/06/15 07:10:10;;;;;;;9.67;3.27;;;24.70;52.90;;;;;;5114319;28;20510;-78
2022/06/15 07:12:36;;;;;;;7.43;2.90;;;24.90;52.50;;;;;;5095841;28;20082;-78
2022/06/15 07:15:06;;;;;;;6.87;2.73;;;;;;;;;;5114236;28;20055;-78
2022/06/15 07:17:32;;;;;;;10.27;2.70;;;24.20;50.30;;;;;;5113967;28;20040;-77
2022/06/15 07:19:58;;;;;;;7.77;3.40;;;24.00;52.40;;;;;;5096087;28;20050;-78
2022/06/15 07:22:23;;;;;;;6.97;2.77;;;24.00;52.10;;;;;;5113989;28;20138;-78
2022/06/15 07:24:49;;;;;;;7.57;2.40;;;24.60;57.30;;;;;;5114106;28;20050;-78
2022/06/15 07:27:16;;;;;;;8.77;3.07;;;24.70;51.30;;;;;;5114355;28;20380;-78
2022/06/15 07:29:46;;;;;;;7.47;2.47;;;;;;;;;;5113691;28;20395;-78
2022/06/15 07:32:14;;;;;;;7.37;2.60;;;25.90;48.50;;;;;;5114238;28;20039;-78
2022/06/15 07:34:41;;;;;;;6.17;2.70;;;26.30;48.70;;;;;;5113767;28;20096;-78
2022/06/15 07:37:07;;;;;;;8.07;2.20;;;;;;;;;;5095955;28;20050;-78
2022/06/15 07:39:34;;;;;;;5.33;2.27;;;25.90;43.20;;;;;;5081718;28;20048;-75
2022/06/15 07:42:00;;;;;;;8.03;2.67;;;25.60;45.80;;;;;;5073308;28;20045;-79
2022/06/15 07:44:27;;;;;;;6.93;2.43;;;25.60;46.90;;;;;;5072874;28;20048;-78
2022/06/15 07:49:54;;;;;;;8.50;2.87;;;26.00;47.30;;;;;;5073150;28;20484;-78
2022/06/15 07:49:55;;;;;;;8.60;2.17;;;;;;;;;;5072550;28;20568;-79
2022/06/15 07:52:31;;;;;;;7.73;2.47;;;;;;;;;;5073178;28;20079;-79
2022/06/15 07:54:56;;;;;;;8.73;2.60;;;27.60;80.00;;;;;;5072982;28;20051;-79
2022/06/15 07:57:23;;;;;;;8.40;2.60;;;27.90;55.10;;;;;;5072941;28;20045;-79
2022/06/15 07:59:50;;;;;;;6.93;3.15;;;;;;;;;;5072498;28;20090;-79
2022/06/15 08:02:16;;;;;;;6.47;3.08;;;28.80;42.20;;;;;;5073347;28;20044;-78
2022/06/15 08:04:42;;;;;;;7.38;3.17;;;29.10;43.00;;;;;;5072774;28;20057;-78
2022/06/15 08:07:10;;;;;;;9.45;3.72;;;29.30;43.30;;;;;;5055178;28;20056;-79
2022/06/15 08:09:37;;;;;;;9.15;3.20;;;29.90;43.00;;;;;;5072807;28;20049;-79
2022/06/15 08:12:14;;;;;;;7.05;3.78;;;30.00;42.30;;;;;;5073089;28;20044;-74
2022/06/15 08:14:47;;;;;;;8.07;3.40;;;29.40;42.30;;;;;;5071987;28;20072;-79
2022/06/15 08:17:23;;;;;;;10.57;4.47;;;29.60;42.90;;;;;;5073056;28;20056;-79
2022/06/15 08:19:54;;;;;;;8.80;3.60;;;29.10;43.20;;;;;;5072670;28;20044;-80
2022/06/15 08:22:20;;;;;;;7.65;3.45;;;;;;;;;;5073010;28;20500;-79
2022/06/15 08:24:47;;;;;;;10.10;3.60;;;;;;;;;;5072151;28;20448;-80
2022/06/15 08:27:15;;;;;;;6.38;3.00;;;28.80;42.10;;;;;;5072777;28;20047;-78
2022/06/15 08:29:42;;;;;;;7.00;3.28;;;28.80;43.60;;;;;;5072372;28;20067;-81
2022/06/15 08:32:09;;;;;;;6.60;3.00;;;29.20;43.70;;;;;;5055042;28;20048;-79
2022/06/15 08:34:37;;;;;;;6.45;2.72;;;29.20;43.70;;;;;;5071168;28;20044;-80
2022/06/15 08:37:08;;;;;;;5.97;2.90;;;29.50;42.90;;;;;;5072504;28;20132;-79
2022/06/15 08:39:34;;;;;;;7.32;3.10;;;29.20;76.10;;;;;;5070883;28;20063;-81
2022/06/15 08:42:09;;;;;;;7.57;3.40;;;;;;;;;;5072752;28;20045;-80
2022/06/15 08:44:56;;;;;;;6.82;3.08;;;;;;;;;;5054688;28;20041;-80
2022/06/15 08:47:42;;;;;;;6.20;2.67;;;28.40;79.70;;;;;;5072055;28;20048;-79
2022/06/15 08:50:33;;;;;;;11.40;2.75;;;28.20;42.30;;;;;;5072657;28;20045;-79
2022/06/15 08:53:18;;;;;;;9.00;2.85;;;;;;;;;;5072462;28;20444;-79
2022/06/15 08:55:43;;;;;;;10.88;2.75;;;26.70;42.10;;;;;;5072092;28;20123;-79
2022/06/15 08:58:17;;;;;;;7.60;2.88;;;;;;;;;;5072450;28;20583;-79
2022/06/15 09:00:45;;;;;;;8.52;2.75;;;25.80;43.90;;;;;;5072135;28;20459;-79
2022/06/15 09:03:22;;;;;;;8.38;2.72;;;25.30;44.70;;;;;;5072298;28;20059;-79
2022/06/15 09:06:10;;;;;;;7.10;2.50;;;25.10;45.50;;;;;;5071380;28;20439;-77
2022/06/15 09:08:51;;;;;;;7.60;2.40;;;24.60;46.30;;;;;;5072110;28;20060;-78
2022/06/15 09:11:36;;;;;;;6.57;2.60;;;;;;;;;;5074704;28;20072;-78
2022/06/15 09:14:02;;;;;;;;;;;;;;;;;;5075442;28;20110;-80
2022/06/15 09:16:38;;;;;;;7.83;2.37;;;;;;;;;;5075967;28;19924;-82
2022/06/15 09:19:12;;;;;;;9.30;3.37;;;;;;;;;;5075838;28;20048;-79
2022/06/15 09:21:44;;;;;;;8.70;2.80;;;22.80;49.60;;;;;;5075496;28;20051;-74
2022/06/15 09:24:16;;;;;;;9.83;3.27;;;22.80;50.20;;;;;;5075802;28;20048;-73
2022/06/15 09:26:50;;;;;;;7.20;3.10;;;22.60;50.60;;;;;;5075448;28;20094;-76
2022/06/15 09:29:16;;;;;;;7.20;3.70;;;22.50;51.40;;;;;;5075279;28;20488;-78
2022/06/15 09:31:57;;;;;;;7.43;3.00;;;22.40;52.00;;;;;;5075370;28;20106;-79
2022/06/15 09:34:32;;;;;;;6.13;2.70;;;22.40;53.00;;;;;;5075660;28;20127;-78
2022/06/15 09:36:58;;;;;;;7.67;3.37;;;22.30;53.20;;;;;;5074072;28;20056;-79
2022/06/15 09:39:26;;;;;;;7.77;3.13;;;22.20;53.40;;;;;;5092859;28;20055;-78
2022/06/15 09:42:21;;;;;;;8.20;3.07;;;22.10;53.40;;;;;;5115853;28;20058;-78
2022/06/15 09:45:02;;;;;;;7.70;2.97;;;22.20;52.90;;;;;;5115818;28;20083;-79
2022/06/15 09:48:08;;;;;;;7.60;2.93;;;22.10;52.40;;;;;;5115977;28;20055;-78
2022/06/15 09:50:55;;;;;;;4.80;2.40;;;22.20;51.80;;;;;;5115934;28;20078;-78
2022/06/15 09:53:37;;;;;;;7.60;2.97;;;22.20;50.20;;;;;;5115877;28;20055;-79
2022/06/15 09:56:10;;;;;;;8.77;2.97;;;22.30;50.60;;;;;;5098118;28;20052;-79
2022/06/15 09:58:55;;;;;;;8.37;2.70;;;22.40;51.40;;;;;;5115814;28;20078;-78
2022/06/15 10:01:28;;;;;;;6.83;2.83;;;22.40;52.50;;;;;;5115677;28;20046;-79
2022/06/15 10:03:56;;;;;;;5.90;2.80;;;22.70;50.70;;;;;;5097158;28;20059;-79
2022/06/15 10:06:42;;;;;;;6.67;3.00;;;22.40;50.00;;;;;;5115577;28;20441;-76
2022/06/15 10:09:10;;;;;;;7.40;2.67;;;22.40;51.20;;;;;;5087998;28;20097;-76
2022/06/15 10:11:50;;;;;;;7.13;3.33;;;22.50;52.10;;;;;;5104222;28;20101;-77
2022/06/15 10:14:37;;;;;;;7.60;3.07;;;22.40;52.20;;;;;;5107128;28;20040;-76
2022/06/15 10:17:24;;;;;;;8.97;3.40;;;22.30;53.10;;;;;;5115152;28;20052;-75
2022/06/15 10:19:53;;;;;;;6.57;3.10;;;;;;;;;;5096936;28;20497;-77
2022/06/15 10:22:27;;;;;;;11.67;3.53;;;;;;;;;;5096637;28;20116;-77
2022/06/15 10:24:53;;;;;;;8.15;2.83;;;;;;;;;;5115152;28;20051;-77
2022/06/15 10:27:23;;;;;;;6.90;2.73;;;;;;;;;;5115223;28;20053;-76
2022/06/15 10:29:57;;;;;;;6.33;3.10;;;;;;;;;;5114932;28;20110;-77
2022/06/15 10:32:23;;;;;;;6.82;2.78;;;;;;;;;;5114209;28;20050;-79
2022/06/15 10:34:50;;;;;;;8.90;2.90;;;;;;;;;;5087882;28;20047;-80
2022/06/15 10:37:35;;;;;;;6.77;3.20;;;22.20;68.90;;;;;;5114930;28;20126;-77
2022/06/15 10:40:17;;;;;;;9.73;3.63;;;;;;;;;;5114347;28;20066;-77
2022/06/15 10:42:47;;;;;;;6.97;3.20;;;;;;;;;;5114633;28;20043;-79
2022/06/15 10:45:30;;;;;;;6.37;2.87;;;;;;;;;;5114810;28;20051;-79
2022/06/15 10:48:01;;;;;;;8.90;2.93;;;;;;;;;;5114203;28;20491;-78
2022/06/15 10:50:42;;;;;;;7.20;3.00;;;;;;;;;;5114697;28;20042;-77
2022/06/15 10:53:25;;;;;;;9.27;3.57;;;;;;;;;;5114631;28;20051;-78
2022/06/15 11:04:23;;;;;;;6.70;3.37;;;;;;;;;;5114481;28;20087;-79
2022/06/15 11:06:51;;;;;;;8.00;3.13;;;;;;;;;;5114065;28;20048;-74
2022/06/15 11:09:18;;;;;;;8.93;3.20;;;;;;;;;;5096092;28;20512;-76
2022/06/15 11:11:44;;;;;;;9.60;3.10;;;;;;;;;;5114107;28;20130;-69
2022/06/15 11:14:16;;;;;;;6.13;2.73;;;;;;;;;;5114154;28;20047;-72
2022/06/15 11:19:27;;;;;;;6.20;2.75;;;;;;;;;;5114187;28;20134;-72
2022/06/15 11:22:00;;;;;;;10.73;2.87;;;;;;;;;;5113823;28;20048;-73
2022/06/15 11:24:35;;;;;;;6.90;2.90;;;;;;;;;;5114031;28;20045;-72
2022/06/15 11:27:03;;;;;;;8.40;3.10;;;;;;;;;;5113742;28;20058;-73
2022/06/15 11:29:31;;;;;;;6.63;3.33;;;;;;;;;;5113946;28;20039;-71
2022/06/15 11:32:02;;;;;;;5.70;2.63;;;;;;;;;;5113599;28;20128;-71
2022/06/15 11:34:32;;;;;;;6.60;3.07;;;;;;;;;;5113078;28;20479;-71
2022/06/15 11:37:01;;;;;;;6.73;3.00;;;;;;;;;;5113681;28;20197;-71
2022/06/15 11:39:48;;;;;;;5.97;2.83;;;;;;;;;;5113685;28;20087;-73
2022/06/15 11:42:15;;;;;;;8.90;3.50;;;;;;;;;;5113617;28;20058;-73
2022/06/15 11:44:43;;;;;;;7.37;2.97;;;;;;;;;;5113592;28;20411;-75
2022/06/15 11:47:28;;;;;;;8.00;2.83;;;;;;;;;;5078600;28;20047;-78
2022/06/15 11:50:02;;;;;;;5.45;2.72;;;21.90;80.70;;;;;;5095285;28;20053;-79
2022/06/15 11:52:54;;;;;;;;;;;21.80;81.80;;;;;;5095909;28;20047;-67
2022/06/15 11:55:20;;;;;;;6.53;2.63;;;21.60;82.10;;;;;;5089405;28;20010;-68
2022/06/15 11:58:17;;;;;;;6.53;3.07;;;21.60;83.40;;;;;;5095618;28;20074;-68
2022/06/15 12:01:08;;;;;;;8.40;3.80;;;21.70;90.10;;;;;;5113410;28;20043;-76
2022/06/15 12:03:45;;;;;;;9.13;3.93;;;21.80;90.30;;;;;;5113488;28;20081;-69
2022/06/15 12:06:39;;;;;;;7.67;3.07;;;21.70;90.40;;;;;;5113322;28;20902;-75
2022/06/15 12:09:35;;;;;;;7.33;3.50;;;21.70;90.30;;;;;;5113003;28;20055;-74
2022/06/15 12:12:38;;;;;;;7.17;3.30;;;21.60;90.10;;;;;;5095021;28;20506;-78
2022/06/15 12:15:27;;;;;;;9.77;3.57;;;21.50;84.10;;;;;;5113164;28;20077;-74
2022/06/15 12:18:30;;;;;;;8.60;3.70;;;21.50;84.40;;;;;;5074652;28;20113;-79
2022/06/15 12:21:01;;;;;;;11.03;3.37;;;21.50;83.50;;;;;;5113003;28;20096;-76
2022/06/15 12:23:47;;;;;;;7.83;3.07;;;21.60;87.30;;;;;;5113479;28;20050;-76
2022/06/15 12:26:19;;;;;;;6.60;2.80;;;21.60;90.60;;;;;;5113082;28;20055;-74
2022/06/15 12:29:25;;;;;;;6.57;3.00;;;21.80;88.40;;;;;;5113252;28;20051;-76
2022/06/15 12:34:59;;;;;;;8.33;3.33;;;21.80;87.70;;;;;;5095277;28;20468;-76
2022/06/15 12:37:31;;;;;;;7.67;3.13;;;21.90;90.40;;;;;;5113213;28;20047;-76
2022/06/15 12:39:57;;;;;;;6.07;2.57;;;;;;;;;;5112553;28;20601;-72
2022/06/15 12:42:23;;;;;;;8.53;3.10;;;;;;;;;;5113098;28;20399;-71
2022/06/15 12:44:53;;;;;;;6.77;3.07;;;;;;;;;;5114554;28;20047;-79
2022/06/15 12:47:20;;;;;;;7.57;3.17;;;;;;;;;;5116878;28;20121;-69
2022/06/15 12:50:24;;;;;;;9.23;3.50;;;22.60;55.70;;;;;;5117080;28;20075;-70
2022/06/15 12:53:12;;;;;;;7.63;2.90;;;22.60;56.40;;;;;;5099323;28;20078;-71
2022/06/15 12:55:47;;;;;;;10.07;3.43;;;;;;;;;;5117109;28;20142;-71
2022/06/15 12:58:22;;;;;;;7.73;3.53;;;;;;;;;;5116801;28;20105;-71
2022/06/15 13:00:52;;;;;;;8.53;3.50;;;;;;;;;;5082035;28;20051;-70
2022/06/15 13:03:37;;;;;;;7.27;3.27;;;;;;;;;;5116483;28;20048;-70
2022/06/15 13:06:19;;;;;;;7.93;3.38;;;;;;;;;;5116636;28;20048;-68
2022/06/15 13:08:58;;;;;;;6.13;3.00;;;;;;;;;;5098808;28;20086;-68
2022/06/15 13:11:25;;;;;;;7.80;3.90;;;;;;;;;;5116442;28;20518;-77
2022/06/15 13:13:53;;;;;;;9.57;3.60;;;;;;;;;;5098525;28;20069;-71
2022/06/15 13:16:35;;;;;;;7.97;3.87;;;;;;;;;;5116207;28;20134;-70
2022/06/15 13:19:03;;;;;;;9.40;3.53;;;;;;;;;;5116276;28;20071;-71
2022/06/15 13:21:48;;;;;;;7.23;3.40;;;;;;;;;;5121376;27;20047;-70
2022/06/15 13:24:14;;;;;;;;;;;;;;;;;;5119269;27;20051;-70
2022/06/15 13:26:41;;;;;;;10.77;4.00;;;;;;;;;;5133717;27;19931;-70
2022/06/15 13:29:10;;;;;;;8.10;3.37;;;21.50;59.60;;;;;;5112902;27;20158;-69
2022/06/15 13:31:57;;;;;;;7.80;3.43;;;21.50;60.60;;;;;;5134230;27;20453;-68
2022/06/15 13:34:35;;;;;;;8.10;3.67;;;21.50;61.10;;;;;;5116693;27;20055;-71
2022/06/15 13:37:15;;;;;;;8.37;3.40;;;21.50;61.40;;;;;;5136367;27;20083;-71
2022/06/15 13:40:00;;;;;;;9.80;3.57;;;21.40;62.10;;;;;;5135218;27;20047;-73
2022/06/15 13:42:46;;;;;;;7.70;3.70;;;21.50;61.50;;;;;;5135992;27;20491;-72
2022/06/15 13:45:24;;;;;;;9.47;3.77;;;21.60;61.30;;;;;;5135713;27;20499;-71
2022/06/15 13:47:54;;;;;;;5.67;2.67;;;21.60;61.30;;;;;;5136624;27;20055;-71
2022/06/15 13:50:29;;;;;;;9.20;2.70;;;21.80;61.30;;;;;;5117971;27;20387;-70
2022/06/15 13:53:01;;;;;;;7.00;2.93;;;21.80;60.50;;;;;;5136327;27;20088;-71